Terminal Aerodrome Forecast
Issued by NWS Portland, OR

Home | Current Version | Previous Version | Text Only | Print | Product List | Glossary On
Versions: 1 2 3 4 5 6 7 8 9 10 11 12 13 14 15 16 17 18 19 20 21 22 23 24 25 26 27 28 29 30 31
000
FTUS46 KPQR 122344
TAFTTD
TAF
KTTD 122344Z 1300/1324 09005KT P6SM SCT015 BKN050 OVC070
     FM130200 VRB04KT P6SM SCT050 OVC080
     FM130900 00000KT 5SM -SHRA BR BKN025 OVC050
     FM131900 12005KT 6SM -RA BR OVC040=

USA.gov is the U.S. government's official web portal to all federal, state and local government web resources and services.